sensor_id;sensor_type;location;lat;lon;timestamp;temperature;humidity
37944;DHT22;23767;42.024;23.086;2024-02-21T00:02:12;6.50;99.90
37944;DHT22;23767;42.024;23.086;2024-02-21T00:04:38;6.60;99.90
37944;DHT22;23767;42.024;23.086;2024-02-21T00:07:04;6.40;99.90
37944;DHT22;23767;42.024;23.086;2024-02-21T00:09:30;6.20;99.90
37944;DHT22;23767;42.024;23.086;2024-02-21T00:11:56;6.30;99.90
37944;DHT22;23767;42.024;23.086;2024-02-21T00:14:21;6.30;99.90
37944;DHT22;23767;42.024;23.086;2024-02-21T00:16:47;6.30;99.90
37944;DHT22;23767;42.024;23.086;2024-02-21T00:19:12;6.00;99.90
37944;DHT22;23767;42.024;23.086;2024-02-21T00:21:40;6.00;99.90
37944;DHT22;23767;42.024;23.086;2024-02-21T00:24:05;6.20;99.90
37944;DHT22;23767;42.024;23.086;2024-02-21T00:26:31;6.40;99.90
37944;DHT22;23767;42.024;23.086;2024-02-21T00:28:57;6.50;99.90
37944;DHT22;23767;42.024;23.086;2024-02-21T00:31:22;6.30;99.90
37944;DHT22;23767;42.024;23.086;2024-02-21T00:33:48;6.30;99.90
37944;DHT22;23767;42.024;23.086;2024-02-21T00:36:14;6.20;99.90
37944;DHT22;23767;42.024;23.086;2024-02-21T00:38:40;5.90;99.90
37944;DHT22;23767;42.024;23.086;2024-02-21T00:41:06;5.80;99.90
37944;DHT22;23767;42.024;23.086;2024-02-21T00:43:32;5.80;99.90
37944;DHT22;23767;42.024;23.086;2024-02-21T00:45:57;6.00;99.90
37944;DHT22;23767;42.024;23.086;2024-02-21T00:48:23;6.20;99.90
37944;DHT22;23767;42.024;23.086;2024-02-21T00:50:49;6.30;99.90
37944;DHT22;23767;42.024;23.086;2024-02-21T00:53:14;6.40;99.90
37944;DHT22;23767;42.024;23.086;2024-02-21T00:55:40;6.50;99.90
37944;DHT22;23767;42.024;23.086;2024-02-21T00:58:06;6.70;99.90
37944;DHT22;23767;42.024;23.086;2024-02-21T01:00:31;6.80;99.90
37944;DHT22;23767;42.024;23.086;2024-02-21T01:02:57;6.90;99.90
37944;DHT22;23767;42.024;23.086;2024-02-21T01:05:23;6.90;99.90
37944;DHT22;23767;42.024;23.086;2024-02-21T01:07:48;7.00;99.90
37944;DHT22;23767;42.024;23.086;2024-02-21T01:10:14;7.00;99.90
37944;DHT22;23767;42.024;23.086;2024-02-21T01:12:39;7.00;99.90
37944;DHT22;23767;42.024;23.086;2024-02-21T01:15:05;7.00;99.90
37944;DHT22;23767;42.024;23.086;2024-02-21T01:17:31;7.00;99.90
37944;DHT22;23767;42.024;23.086;2024-02-21T01:19:58;7.00;99.90
37944;DHT22;23767;42.024;23.086;2024-02-21T01:22:24;7.00;99.90
37944;DHT22;23767;42.024;23.086;2024-02-21T01:24:50;7.00;99.90
37944;DHT22;23767;42.024;23.086;2024-02-21T01:27:15;7.00;99.90
37944;DHT22;23767;42.024;23.086;2024-02-21T01:29:41;7.00;99.90
37944;DHT22;23767;42.024;23.086;2024-02-21T01:32:07;7.00;99.90
37944;DHT22;23767;42.024;23.086;2024-02-21T01:34:33;7.00;99.90
37944;DHT22;23767;42.024;23.086;2024-02-21T01:36:58;6.90;99.90
37944;DHT22;23767;42.024;23.086;2024-02-21T01:39:25;6.90;99.90
37944;DHT22;23767;42.024;23.086;2024-02-21T01:41:50;6.80;99.90
37944;DHT22;23767;42.024;23.086;2024-02-21T01:44:16;6.90;99.90
37944;DHT22;23767;42.024;23.086;2024-02-21T01:46:41;6.90;99.90
37944;DHT22;23767;42.024;23.086;2024-02-21T01:49:07;6.80;99.90
37944;DHT22;23767;42.024;23.086;2024-02-21T01:51:33;6.90;99.90
37944;DHT22;23767;42.024;23.086;2024-02-21T01:53:58;7.00;99.90
37944;DHT22;23767;42.024;23.086;2024-02-21T01:56:24;6.80;99.90
37944;DHT22;23767;42.024;23.086;2024-02-21T01:58:51;6.80;99.90
37944;DHT22;23767;42.024;23.086;2024-02-21T02:01:17;6.90;99.90
37944;DHT22;23767;42.024;23.086;2024-02-21T02:03:45;7.00;99.90
37944;DHT22;23767;42.024;23.086;2024-02-21T02:06:10;7.00;99.90
37944;DHT22;23767;42.024;23.086;2024-02-21T02:08:36;6.90;99.90
37944;DHT22;23767;42.024;23.086;2024-02-21T02:11:02;6.80;99.90
37944;DHT22;23767;42.024;23.086;2024-02-21T02:13:28;6.90;99.90
37944;DHT22;23767;42.024;23.086;2024-02-21T02:15:54;7.00;99.90
37944;DHT22;23767;42.024;23.086;2024-02-21T02:18:20;7.00;99.90
37944;DHT22;23767;42.024;23.086;2024-02-21T02:20:46;7.00;99.90
37944;DHT22;23767;42.024;23.086;2024-02-21T02:23:28;6.90;99.90
37944;DHT22;23767;42.024;23.086;2024-02-21T02:25:54;6.60;99.90
37944;DHT22;23767;42.024;23.086;2024-02-21T02:28:21;6.30;99.90
37944;DHT22;23767;42.024;23.086;2024-02-21T02:30:47;6.00;99.90
37944;DHT22;23767;42.024;23.086;2024-02-21T02:33:13;6.10;99.90
37944;DHT22;23767;42.024;23.086;2024-02-21T02:35:38;6.20;99.90
37944;DHT22;23767;42.024;23.086;2024-02-21T02:38:04;6.40;99.90
37944;DHT22;23767;42.024;23.086;2024-02-21T02:40:31;6.50;99.90
37944;DHT22;23767;42.024;23.086;2024-02-21T02:42:57;6.40;99.90
37944;DHT22;23767;42.024;23.086;2024-02-21T02:45:23;6.10;99.90
37944;DHT22;23767;42.024;23.086;2024-02-21T02:47:49;6.00;99.90
37944;DHT22;23767;42.024;23.086;2024-02-21T02:50:15;5.80;99.90
37944;DHT22;23767;42.024;23.086;2024-02-21T02:52:41;5.70;99.90
37944;DHT22;23767;42.024;23.086;2024-02-21T02:55:07;5.40;99.90
37944;DHT22;23767;42.024;23.086;2024-02-21T02:57:33;5.50;99.90
37944;DHT22;23767;42.024;23.086;2024-02-21T02:59:58;5.40;99.90
37944;DHT22;23767;42.024;23.086;2024-02-21T03:02:24;5.70;99.90
37944;DHT22;23767;42.024;23.086;2024-02-21T03:04:50;5.70;99.90
37944;DHT22;23767;42.024;23.086;2024-02-21T03:07:16;5.80;99.90
37944;DHT22;23767;42.024;23.086;2024-02-21T03:09:42;5.90;99.90
37944;DHT22;23767;42.024;23.086;2024-02-21T03:12:10;6.10;99.90
37944;DHT22;23767;42.024;23.086;2024-02-21T03:14:36;6.20;99.90
37944;DHT22;23767;42.024;23.086;2024-02-21T03:17:03;6.20;99.90
37944;DHT22;23767;42.024;23.086;2024-02-21T03:19:29;6.20;99.90
37944;DHT22;23767;42.024;23.086;2024-02-21T03:21:55;6.30;99.90
37944;DHT22;23767;42.024;23.086;2024-02-21T03:24:21;6.20;99.90
37944;DHT22;23767;42.024;23.086;2024-02-21T03:26:47;6.20;99.90
37944;DHT22;23767;42.024;23.086;2024-02-21T03:29:14;6.00;99.90
37944;DHT22;23767;42.024;23.086;2024-02-21T03:31:40;6.00;99.90
37944;DHT22;23767;42.024;23.086;2024-02-21T03:34:06;6.00;99.90
37944;DHT22;23767;42.024;23.086;2024-02-21T03:36:31;6.10;99.90
37944;DHT22;23767;42.024;23.086;2024-02-21T03:38:57;6.10;99.90
37944;DHT22;23767;42.024;23.086;2024-02-21T03:41:23;6.20;99.90
37944;DHT22;23767;42.024;23.086;2024-02-21T03:43:48;6.20;99.90
37944;DHT22;23767;42.024;23.086;2024-02-21T03:46:15;6.20;99.90
37944;DHT22;23767;42.024;23.086;2024-02-21T03:48:41;6.10;99.90
37944;DHT22;23767;42.024;23.086;2024-02-21T03:51:06;5.90;99.90
37944;DHT22;23767;42.024;23.086;2024-02-21T03:53:32;5.80;99.90
37944;DHT22;23767;42.024;23.086;2024-02-21T03:56:01;5.80;99.90
37944;DHT22;23767;42.024;23.086;2024-02-21T03:58:28;5.80;99.90
37944;DHT22;23767;42.024;23.086;2024-02-21T04:00:54;5.70;99.90
37944;DHT22;23767;42.024;23.086;2024-02-21T04:03:19;5.50;99.90
37944;DHT22;23767;42.024;23.086;2024-02-21T04:05:45;5.50;99.90
37944;DHT22;23767;42.024;23.086;2024-02-21T04:08:11;5.50;99.90
37944;DHT22;23767;42.024;23.086;2024-02-21T04:10:37;5.60;99.90
37944;DHT22;23767;42.024;23.086;2024-02-21T04:13:03;5.50;99.90
37944;DHT22;23767;42.024;23.086;2024-02-21T04:15:29;5.40;99.90
37944;DHT22;23767;42.024;23.086;2024-02-21T04:17:55;5.50;99.90
37944;DHT22;23767;42.024;23.086;2024-02-21T04:20:20;5.50;99.90
37944;DHT22;23767;42.024;23.086;2024-02-21T04:22:46;5.30;99.90
37944;DHT22;23767;42.024;23.086;2024-02-21T04:25:12;5.20;99.90
37944;DHT22;23767;42.024;23.086;2024-02-21T04:27:41;5.20;99.90
37944;DHT22;23767;42.024;23.086;2024-02-21T04:30:07;5.00;99.90
37944;DHT22;23767;42.024;23.086;2024-02-21T04:32:35;5.10;99.90
37944;DHT22;23767;42.024;23.086;2024-02-21T04:35:00;5.10;99.90
37944;DHT22;23767;42.024;23.086;2024-02-21T04:37:26;5.20;99.90
37944;DHT22;23767;42.024;23.086;2024-02-21T04:39:52;5.10;99.90
37944;DHT22;23767;42.024;23.086;2024-02-21T04:42:18;5.10;99.90
37944;DHT22;23767;42.024;23.086;2024-02-21T04:44:43;5.10;99.90
37944;DHT22;23767;42.024;23.086;2024-02-21T04:47:10;5.10;99.90
37944;DHT22;23767;42.024;23.086;2024-02-21T04:49:36;5.20;99.90
37944;DHT22;23767;42.024;23.086;2024-02-21T04:52:01;5.10;99.90
37944;DHT22;23767;42.024;23.086;2024-02-21T04:54:27;5.10;99.90
37944;DHT22;23767;42.024;23.086;2024-02-21T04:56:53;5.20;99.90
37944;DHT22;23767;42.024;23.086;2024-02-21T04:59:18;5.30;99.90
37944;DHT22;23767;42.024;23.086;2024-02-21T05:01:44;5.30;99.90
37944;DHT22;23767;42.024;23.086;2024-02-21T05:04:10;5.20;99.90
37944;DHT22;23767;42.024;23.086;2024-02-21T05:06:39;5.20;99.90
37944;DHT22;23767;42.024;23.086;2024-02-21T05:09:09;5.30;99.90
37944;DHT22;23767;42.024;23.086;2024-02-21T05:11:35;5.20;99.90
37944;DHT22;23767;42.024;23.086;2024-02-21T05:14:01;5.20;99.90
37944;DHT22;23767;42.024;23.086;2024-02-21T05:16:28;5.20;99.90
37944;DHT22;23767;42.024;23.086;2024-02-21T05:18:53;5.30;99.90
37944;DHT22;23767;42.024;23.086;2024-02-21T05:21:19;5.50;99.90
37944;DHT22;23767;42.024;23.086;2024-02-21T05:23:45;5.50;99.90
37944;DHT22;23767;42.024;23.086;2024-02-21T05:26:10;5.50;99.90
37944;DHT22;23767;42.024;23.086;2024-02-21T05:28:36;5.50;99.90
37944;DHT22;23767;42.024;23.086;2024-02-21T05:31:02;5.50;99.90
37944;DHT22;23767;42.024;23.086;2024-02-21T05:33:27;5.50;99.90
37944;DHT22;23767;42.024;23.086;2024-02-21T05:35:53;5.50;99.90
37944;DHT22;23767;42.024;23.086;2024-02-21T05:38:19;5.30;99.90
37944;DHT22;23767;42.024;23.086;2024-02-21T05:40:45;5.40;99.90
37944;DHT22;23767;42.024;23.086;2024-02-21T05:43:11;5.50;99.90
37944;DHT22;23767;42.024;23.086;2024-02-21T05:45:36;5.40;99.90
37944;DHT22;23767;42.024;23.086;2024-02-21T05:48:05;5.50;99.90
37944;DHT22;23767;42.024;23.086;2024-02-21T05:50:31;5.60;99.90
37944;DHT22;23767;42.024;23.086;2024-02-21T05:52:58;5.70;99.90
37944;DHT22;23767;42.024;23.086;2024-02-21T05:55:24;5.70;99.90
37944;DHT22;23767;42.024;23.086;2024-02-21T05:57:49;5.80;99.90
37944;DHT22;23767;42.024;23.086;2024-02-21T06:00:15;5.80;99.90
37944;DHT22;23767;42.024;23.086;2024-02-21T06:02:41;6.00;99.90
37944;DHT22;23767;42.024;23.086;2024-02-21T06:05:08;6.10;99.90
37944;DHT22;23767;42.024;23.086;2024-02-21T06:07:34;6.30;99.90
37944;DHT22;23767;42.024;23.086;2024-02-21T06:10:02;6.30;99.90
37944;DHT22;23767;42.024;23.086;2024-02-21T06:12:27;6.30;99.90
37944;DHT22;23767;42.024;23.086;2024-02-21T06:14:53;6.50;99.90
37944;DHT22;23767;42.024;23.086;2024-02-21T06:17:19;6.60;99.90
37944;DHT22;23767;42.024;23.086;2024-02-21T06:19:44;6.50;99.90
37944;DHT22;23767;42.024;23.086;2024-02-21T06:22:10;6.50;99.90
37944;DHT22;23767;42.024;23.086;2024-02-21T06:24:36;6.60;99.90
37944;DHT22;23767;42.024;23.086;2024-02-21T06:27:05;6.80;99.90
37944;DHT22;23767;42.024;23.086;2024-02-21T06:29:34;6.90;99.90
37944;DHT22;23767;42.024;23.086;2024-02-21T06:32:02;6.90;99.90
37944;DHT22;23767;42.024;23.086;2024-02-21T06:34:27;7.00;99.90
37944;DHT22;23767;42.024;23.086;2024-02-21T06:36:53;7.10;99.90
37944;DHT22;23767;42.024;23.086;2024-02-21T06:39:19;7.10;99.90
37944;DHT22;23767;42.024;23.086;2024-02-21T06:41:44;7.10;99.90
37944;DHT22;23767;42.024;23.086;2024-02-21T06:44:10;7.10;99.90
37944;DHT22;23767;42.024;23.086;2024-02-21T06:46:36;7.20;99.90
37944;DHT22;23767;42.024;23.086;2024-02-21T06:49:02;7.00;99.90
37944;DHT22;23767;42.024;23.086;2024-02-21T06:51:30;7.00;99.90
37944;DHT22;23767;42.024;23.086;2024-02-21T06:53:57;7.20;99.90
37944;DHT22;23767;42.024;23.086;2024-02-21T06:56:24;7.40;99.90
37944;DHT22;23767;42.024;23.086;2024-02-21T06:58:57;7.40;99.90
37944;DHT22;23767;42.024;23.086;2024-02-21T07:01:23;7.50;99.90
37944;DHT22;23767;42.024;23.086;2024-02-21T07:03:49;7.60;99.90
37944;DHT22;23767;42.024;23.086;2024-02-21T07:06:15;7.70;99.90
37944;DHT22;23767;42.024;23.086;2024-02-21T07:08:40;7.80;99.90
37944;DHT22;23767;42.024;23.086;2024-02-21T07:11:06;7.90;99.90
37944;DHT22;23767;42.024;23.086;2024-02-21T07:13:32;8.00;99.90
37944;DHT22;23767;42.024;23.086;2024-02-21T07:15:58;8.00;99.90
37944;DHT22;23767;42.024;23.086;2024-02-21T07:18:24;8.10;99.90
37944;DHT22;23767;42.024;23.086;2024-02-21T07:20:51;8.20;99.90
37944;DHT22;23767;42.024;23.086;2024-02-21T07:23:17;8.20;99.90
37944;DHT22;23767;42.024;23.086;2024-02-21T07:25:43;8.30;99.90
37944;DHT22;23767;42.024;23.086;2024-02-21T07:28:09;8.30;99.90
37944;DHT22;23767;42.024;23.086;2024-02-21T07:30:35;8.40;99.90
37944;DHT22;23767;42.024;23.086;2024-02-21T07:33:00;8.40;99.90
37944;DHT22;23767;42.024;23.086;2024-02-21T07:35:26;8.40;99.90
37944;DHT22;23767;42.024;23.086;2024-02-21T07:37:52;8.40;99.90
37944;DHT22;23767;42.024;23.086;2024-02-21T07:40:17;8.50;99.90
37944;DHT22;23767;42.024;23.086;2024-02-21T07:42:44;8.60;99.90
37944;DHT22;23767;42.024;23.086;2024-02-21T07:45:10;8.70;99.90
37944;DHT22;23767;42.024;23.086;2024-02-21T07:47:36;8.80;99.90
37944;DHT22;23767;42.024;23.086;2024-02-21T07:50:03;8.70;99.90
37944;DHT22;23767;42.024;23.086;2024-02-21T07:52:29;8.70;99.90
37944;DHT22;23767;42.024;23.086;2024-02-21T07:54:55;8.60;99.90
37944;DHT22;23767;42.024;23.086;2024-02-21T07:57:20;8.60;99.90
37944;DHT22;23767;42.024;23.086;2024-02-21T07:59:47;8.60;99.90
37944;DHT22;23767;42.024;23.086;2024-02-21T08:02:16;8.80;99.90
37944;DHT22;23767;42.024;23.086;2024-02-21T08:04:41;8.90;99.90
37944;DHT22;23767;42.024;23.086;2024-02-21T08:07:07;9.00;99.90
37944;DHT22;23767;42.024;23.086;2024-02-21T08:09:33;9.10;99.90
37944;DHT22;23767;42.024;23.086;2024-02-21T08:11:58;9.00;99.90
37944;DHT22;23767;42.024;23.086;2024-02-21T08:14:24;9.10;99.90
37944;DHT22;23767;42.024;23.086;2024-02-21T08:16:51;9.10;99.90
37944;DHT22;23767;42.024;23.086;2024-02-21T08:19:18;8.60;99.90
37944;DHT22;23767;42.024;23.086;2024-02-21T08:21:44;8.70;99.90
37944;DHT22;23767;42.024;23.086;2024-02-21T08:24:15;8.90;99.90
37944;DHT22;23767;42.024;23.086;2024-02-21T08:26:42;8.90;99.90
37944;DHT22;23767;42.024;23.086;2024-02-21T08:29:07;8.80;99.90
37944;DHT22;23767;42.024;23.086;2024-02-21T08:31:33;8.90;99.90
37944;DHT22;23767;42.024;23.086;2024-02-21T08:34:00;9.10;99.90
37944;DHT22;23767;42.024;23.086;2024-02-21T08:36:35;9.40;99.90
37944;DHT22;23767;42.024;23.086;2024-02-21T08:39:02;9.60;99.90
37944;DHT22;23767;42.024;23.086;2024-02-21T08:41:33;9.80;99.90
37944;DHT22;23767;42.024;23.086;2024-02-21T08:44:00;9.80;99.90
37944;DHT22;23767;42.024;23.086;2024-02-21T08:46:26;9.90;99.90
37944;DHT22;23767;42.024;23.086;2024-02-21T08:48:53;10.00;99.90
37944;DHT22;23767;42.024;23.086;2024-02-21T08:51:19;9.90;99.90
37944;DHT22;23767;42.024;23.086;2024-02-21T08:53:45;10.00;99.90
37944;DHT22;23767;42.024;23.086;2024-02-21T08:56:11;10.10;99.90
37944;DHT22;23767;42.024;23.086;2024-02-21T08:58:37;10.20;99.90
37944;DHT22;23767;42.024;23.086;2024-02-21T09:01:03;10.40;99.90
37944;DHT22;23767;42.024;23.086;2024-02-21T09:03:36;10.40;99.90
37944;DHT22;23767;42.024;23.086;2024-02-21T09:06:02;10.50;99.50
37944;DHT22;23767;42.024;23.086;2024-02-21T09:08:28;10.40;99.50
37944;DHT22;23767;42.024;23.086;2024-02-21T09:10:53;10.50;99.40
37944;DHT22;23767;42.024;23.086;2024-02-21T09:13:19;10.70;98.90
37944;DHT22;23767;42.024;23.086;2024-02-21T09:15:45;10.90;98.80
37944;DHT22;23767;42.024;23.086;2024-02-21T09:18:10;11.10;98.20
37944;DHT22;23767;42.024;23.086;2024-02-21T09:20:36;11.30;97.70
37944;DHT22;23767;42.024;23.086;2024-02-21T09:23:02;11.40;97.10
37944;DHT22;23767;42.024;23.086;2024-02-21T09:25:27;11.40;97.30
37944;DHT22;23767;42.024;23.086;2024-02-21T09:27:54;11.40;96.90
37944;DHT22;23767;42.024;23.086;2024-02-21T09:30:20;11.20;98.00
37944;DHT22;23767;42.024;23.086;2024-02-21T09:32:46;11.50;97.60
37944;DHT22;23767;42.024;23.086;2024-02-21T09:35:12;11.60;97.20
37944;DHT22;23767;42.024;23.086;2024-02-21T09:37:39;11.90;96.60
37944;DHT22;23767;42.024;23.086;2024-02-21T09:40:05;11.80;96.20
37944;DHT22;23767;42.024;23.086;2024-02-21T09:42:38;11.80;96.00
37944;DHT22;23767;42.024;23.086;2024-02-21T09:45:24;11.40;96.70
37944;DHT22;23767;42.024;23.086;2024-02-21T09:50:34;11.00;95.40
37944;DHT22;23767;42.024;23.086;2024-02-21T09:53:02;10.70;96.20
37944;DHT22;23767;42.024;23.086;2024-02-21T09:55:31;11.00;96.20
37944;DHT22;23767;42.024;23.086;2024-02-21T09:58:01;11.20;95.10
37944;DHT22;23767;42.024;23.086;2024-02-21T10:00:27;10.80;95.10
37944;DHT22;23767;42.024;23.086;2024-02-21T10:02:53;10.70;94.90
37944;DHT22;23767;42.024;23.086;2024-02-21T10:05:19;10.70;95.60
37944;DHT22;23767;42.024;23.086;2024-02-21T10:07:45;10.80;94.70
37944;DHT22;23767;42.024;23.086;2024-02-21T10:10:11;10.90;95.00
37944;DHT22;23767;42.024;23.086;2024-02-21T10:12:47;11.00;92.70
37944;DHT22;23767;42.024;23.086;2024-02-21T10:15:12;10.80;93.40
37944;DHT22;23767;42.024;23.086;2024-02-21T10:17:38;10.70;93.40
37944;DHT22;23767;42.024;23.086;2024-02-21T10:20:10;10.60;93.30
37944;DHT22;23767;42.024;23.086;2024-02-21T10:22:38;10.50;93.80
37944;DHT22;23767;42.024;23.086;2024-02-21T10:25:11;10.60;94.20
37944;DHT22;23767;42.024;23.086;2024-02-21T10:27:38;10.80;94.20
37944;DHT22;23767;42.024;23.086;2024-02-21T10:30:06;11.00;93.70
37944;DHT22;23767;42.024;23.086;2024-02-21T10:32:32;11.10;93.30
37944;DHT22;23767;42.024;23.086;2024-02-21T10:35:04;11.00;92.80
37944;DHT22;23767;42.024;23.086;2024-02-21T10:37:31;11.20;91.80
37944;DHT22;23767;42.024;23.086;2024-02-21T10:39:57;11.20;90.60
37944;DHT22;23767;42.024;23.086;2024-02-21T10:42:27;11.30;91.10
37944;DHT22;23767;42.024;23.086;2024-02-21T10:44:55;11.70;90.40
37944;DHT22;23767;42.024;23.086;2024-02-21T10:47:23;11.80;87.50
37944;DHT22;23767;42.024;23.086;2024-02-21T10:50:00;11.90;85.60
37944;DHT22;23767;42.024;23.086;2024-02-21T10:55:29;11.70;88.60
37944;DHT22;23767;42.024;23.086;2024-02-21T10:57:57;11.60;88.90
37944;DHT22;23767;42.024;23.086;2024-02-21T11:00:24;11.60;90.30
37944;DHT22;23767;42.024;23.086;2024-02-21T11:02:58;11.50;90.10
37944;DHT22;23767;42.024;23.086;2024-02-21T11:05:25;11.60;90.30
37944;DHT22;23767;42.024;23.086;2024-02-21T11:07:53;11.40;88.90
37944;DHT22;23767;42.024;23.086;2024-02-21T11:10:26;11.60;88.50
37944;DHT22;23767;42.024;23.086;2024-02-21T11:13:10;11.60;86.90
37944;DHT22;23767;42.024;23.086;2024-02-21T11:15:36;11.50;87.40
37944;DHT22;23767;42.024;23.086;2024-02-21T11:18:02;11.30;88.10
37944;DHT22;23767;42.024;23.086;2024-02-21T11:20:37;11.60;87.80
37944;DHT22;23767;42.024;23.086;2024-02-21T11:23:04;11.70;87.10
37944;DHT22;23767;42.024;23.086;2024-02-21T11:25:29;11.80;86.70
37944;DHT22;23767;42.024;23.086;2024-02-21T11:28:01;12.10;85.40
37944;DHT22;23767;42.024;23.086;2024-02-21T11:30:31;12.10;83.60
37944;DHT22;23767;42.024;23.086;2024-02-21T11:33:02;12.30;84.00
37944;DHT22;23767;42.024;23.086;2024-02-21T11:35:31;12.40;83.30
37944;DHT22;23767;42.024;23.086;2024-02-21T11:38:10;12.20;83.20
37944;DHT22;23767;42.024;23.086;2024-02-21T11:40:40;12.30;83.60
37944;DHT22;23767;42.024;23.086;2024-02-21T11:43:07;12.20;84.60
37944;DHT22;23767;42.024;23.086;2024-02-21T11:45:33;12.10;86.30
37944;DHT22;23767;42.024;23.086;2024-02-21T11:47:59;12.10;85.50
37944;DHT22;23767;42.024;23.086;2024-02-21T11:50:29;11.90;83.80
37944;DHT22;23767;42.024;23.086;2024-02-21T11:52:56;11.90;85.40
37944;DHT22;23767;42.024;23.086;2024-02-21T11:55:22;11.90;86.50
37944;DHT22;23767;42.024;23.086;2024-02-21T11:57:48;11.90;84.50
37944;DHT22;23767;42.024;23.086;2024-02-21T12:00:16;11.90;84.60
37944;DHT22;23767;42.024;23.086;2024-02-21T12:02:43;11.70;84.20
37944;DHT22;23767;42.024;23.086;2024-02-21T12:05:10;11.70;83.00
37944;DHT22;23767;42.024;23.086;2024-02-21T12:07:37;11.70;82.10
37944;DHT22;23767;42.024;23.086;2024-02-21T12:10:08;11.50;82.10
37944;DHT22;23767;42.024;23.086;2024-02-21T12:12:35;11.40;83.70
37944;DHT22;23767;42.024;23.086;2024-02-21T12:15:03;11.50;83.40
37944;DHT22;23767;42.024;23.086;2024-02-21T12:17:33;11.50;83.00
37944;DHT22;23767;42.024;23.086;2024-02-21T12:20:00;11.70;81.00
37944;DHT22;23767;42.024;23.086;2024-02-21T12:22:25;12.00;80.20
37944;DHT22;23767;42.024;23.086;2024-02-21T12:24:52;12.30;76.50
37944;DHT22;23767;42.024;23.086;2024-02-21T12:27:18;12.30;77.30
37944;DHT22;23767;42.024;23.086;2024-02-21T12:29:43;12.50;79.00
37944;DHT22;23767;42.024;23.086;2024-02-21T12:32:09;12.70;78.40
37944;DHT22;23767;42.024;23.086;2024-02-21T12:34:35;12.90;78.60
37944;DHT22;23767;42.024;23.086;2024-02-21T12:37:01;12.70;78.50
37944;DHT22;23767;42.024;23.086;2024-02-21T12:39:28;12.60;78.90
37944;DHT22;23767;42.024;23.086;2024-02-21T12:41:54;12.60;79.40
37944;DHT22;23767;42.024;23.086;2024-02-21T12:44:22;12.50;79.40
37944;DHT22;23767;42.024;23.086;2024-02-21T12:46:47;12.40;78.90
37944;DHT22;23767;42.024;23.086;2024-02-21T12:49:18;12.40;79.30
37944;DHT22;23767;42.024;23.086;2024-02-21T12:51:44;12.20;79.50
37944;DHT22;23767;42.024;23.086;2024-02-21T12:54:12;12.20;79.50
37944;DHT22;23767;42.024;23.086;2024-02-21T12:56:38;12.10;78.50
37944;DHT22;23767;42.024;23.086;2024-02-21T12:59:05;12.10;78.00
37944;DHT22;23767;42.024;23.086;2024-02-21T13:01:34;12.10;75.90
37944;DHT22;23767;42.024;23.086;2024-02-21T13:04:00;12.10;75.00
37944;DHT22;23767;42.024;23.086;2024-02-21T13:06:26;12.30;72.00
37944;DHT22;23767;42.024;23.086;2024-02-21T13:08:52;12.10;71.00
37944;DHT22;23767;42.024;23.086;2024-02-21T13:11:17;12.30;72.70
37944;DHT22;23767;42.024;23.086;2024-02-21T13:13:43;12.30;71.00
37944;DHT22;23767;42.024;23.086;2024-02-21T13:16:09;12.20;71.50
37944;DHT22;23767;42.024;23.086;2024-02-21T13:18:36;12.20;71.80
37944;DHT22;23767;42.024;23.086;2024-02-21T13:21:04;12.30;71.20
37944;DHT22;23767;42.024;23.086;2024-02-21T13:23:30;12.30;71.50
37944;DHT22;23767;42.024;23.086;2024-02-21T13:25:55;12.30;72.40
37944;DHT22;23767;42.024;23.086;2024-02-21T13:28:21;12.40;72.80
37944;DHT22;23767;42.024;23.086;2024-02-21T13:30:47;12.40;73.20
37944;DHT22;23767;42.024;23.086;2024-02-21T13:33:13;12.50;73.30
37944;DHT22;23767;42.024;23.086;2024-02-21T13:35:39;12.30;73.20
37944;DHT22;23767;42.024;23.086;2024-02-21T13:38:04;12.20;73.10
37944;DHT22;23767;42.024;23.086;2024-02-21T13:40:30;12.20;73.50
37944;DHT22;23767;42.024;23.086;2024-02-21T13:42:56;12.20;74.40
37944;DHT22;23767;42.024;23.086;2024-02-21T13:45:22;12.10;75.30
37944;DHT22;23767;42.024;23.086;2024-02-21T13:47:47;12.20;75.00
37944;DHT22;23767;42.024;23.086;2024-02-21T13:50:14;12.10;76.30
37944;DHT22;23767;42.024;23.086;2024-02-21T13:52:40;12.00;76.50
37944;DHT22;23767;42.024;23.086;2024-02-21T13:55:06;11.90;77.10
37944;DHT22;23767;42.024;23.086;2024-02-21T13:57:37;12.00;77.20
37944;DHT22;23767;42.024;23.086;2024-02-21T14:00:04;12.10;77.40
37944;DHT22;23767;42.024;23.086;2024-02-21T14:02:30;12.10;76.60
37944;DHT22;23767;42.024;23.086;2024-02-21T14:04:56;12.00;77.40
37944;DHT22;23767;42.024;23.086;2024-02-21T14:07:22;11.90;78.30
37944;DHT22;23767;42.024;23.086;2024-02-21T14:09:48;11.80;78.90
37944;DHT22;23767;42.024;23.086;2024-02-21T14:12:14;11.60;78.60
37944;DHT22;23767;42.024;23.086;2024-02-21T14:14:43;11.50;79.40
37944;DHT22;23767;42.024;23.086;2024-02-21T14:17:09;11.50;78.90
37944;DHT22;23767;42.024;23.086;2024-02-21T14:19:35;11.40;79.20
37944;DHT22;23767;42.024;23.086;2024-02-21T14:22:00;11.40;79.40
37944;DHT22;23767;42.024;23.086;2024-02-21T14:24:27;11.40;79.70
37944;DHT22;23767;42.024;23.086;2024-02-21T14:26:53;11.40;79.40
37944;DHT22;23767;42.024;23.086;2024-02-21T14:29:19;11.30;79.70
37944;DHT22;23767;42.024;23.086;2024-02-21T14:31:45;11.30;80.00
37944;DHT22;23767;42.024;23.086;2024-02-21T14:34:11;11.30;79.40
37944;DHT22;23767;42.024;23.086;2024-02-21T14:36:37;11.30;79.40
37944;DHT22;23767;42.024;23.086;2024-02-21T14:39:02;11.40;79.40
37944;DHT22;23767;42.024;23.086;2024-02-21T14:41:30;11.40;79.20
37944;DHT22;23767;42.024;23.086;2024-02-21T14:43:55;11.60;78.30
37944;DHT22;23767;42.024;23.086;2024-02-21T14:46:25;11.60;78.00
37944;DHT22;23767;42.024;23.086;2024-02-21T14:48:57;11.60;78.40
37944;DHT22;23767;42.024;23.086;2024-02-21T14:51:22;11.60;78.40
37944;DHT22;23767;42.024;23.086;2024-02-21T14:53:49;11.50;79.00
37944;DHT22;23767;42.024;23.086;2024-02-21T14:56:15;11.60;79.30
37944;DHT22;23767;42.024;23.086;2024-02-21T14:58:42;11.50;79.30
37944;DHT22;23767;42.024;23.086;2024-02-21T15:01:08;11.70;79.20
37944;DHT22;23767;42.024;23.086;2024-02-21T15:03:34;11.60;78.80
37944;DHT22;23767;42.024;23.086;2024-02-21T15:06:00;11.70;78.80
37944;DHT22;23767;42.024;23.086;2024-02-21T15:08:27;11.70;79.20
37944;DHT22;23767;42.024;23.086;2024-02-21T15:10:53;11.60;79.20
37944;DHT22;23767;42.024;23.086;2024-02-21T15:13:19;11.50;79.40
37944;DHT22;23767;42.024;23.086;2024-02-21T15:15:45;11.50;79.10
37944;DHT22;23767;42.024;23.086;2024-02-21T15:18:14;11.60;79.10
37944;DHT22;23767;42.024;23.086;2024-02-21T15:20:40;11.60;79.10
37944;DHT22;23767;42.024;23.086;2024-02-21T15:23:06;11.60;78.90
37944;DHT22;23767;42.024;23.086;2024-02-21T15:25:32;11.60;78.90
37944;DHT22;23767;42.024;23.086;2024-02-21T15:27:57;11.60;79.20